| time (UTC) | temp F | wind direction | speed MPH | gust MPH | rain 1hr in | rain 24hr in | rain mn in | humidity % | barometer mb |
| 20260901160041 | 90 | 84 | 0.0 | 2.0 | 0.00 | 0.00 | 0.00 | 41 | 1017.0 |
| 20260901154625 | 89 | 93 | 0.0 | 2.0 | 0.00 | 0.00 | 0.00 | 44 | 1017.0 |
| 20260901153041 | 88 | 0 | 0.0 | 1.0 | 0.00 | 0.00 | 0.00 | 46 | 1016.9 |
| 20260901151545 | 87 | 0 | 0.0 | 1.0 | 0.00 | 0.00 | 0.00 | 51 | 1016.8 |
| 20260901150043 | 86 | 0 | 0.0 | 3.0 | 0.00 | 0.00 | 0.00 | 62 | 1017.0 |
| 20260901144541 | 85 | 0 | 0.0 | 2.0 | 0.00 | 0.00 | 0.00 | 64 | 1017.1 |
| 20260901143045 | 84 | 0 | 0.0 | 2.0 | 0.00 | 0.00 | 0.00 | 66 | 1017.1 |
| 20260901141540 | 82 | 0 | 0.0 | 3.0 | 0.00 | 0.00 | 0.00 | 69 | 1017.1 |
| 20260901140044 | 81 | 0 | 0.0 | 4.0 | 0.00 | 0.00 | 0.00 | 75 | 1017.2 |
| 20260901134539 | 78 | 0 | 0.0 | 3.0 | 0.00 | 0.00 | 0.00 | 82 | 1017.2 |
| 20260901133044 | 76 | 0 | 0.0 | 2.0 | 0.00 | 0.00 | 0.00 | 87 | 1017.1 |
| 20260901131542 | 76 | 0 | 0.0 | 1.0 | 0.00 | 0.00 | 0.00 | 88 | 1016.9 |
| 20260901130042 | 74 | 0 | 0.0 | 1.0 | 0.00 | 0.00 | 0.00 | 88 | 1016.7 |
| 20260901124541 | 74 | 0 | 0.0 | 0.0 | 0.00 | 0.00 | 0.00 | 88 | 1016.5 |
| 20260901123048 | 73 | 0 | 0.0 | 0.0 | 0.00 | 0.00 | 0.00 | 88 | 1016.4 |
| 20260901121559 | 73 | 0 | 0.0 | 0.0 | 0.00 | 0.00 | 0.00 | 87 | 1016.2 |
| 20260901120041 | 73 | 0 | 0.0 | 0.0 | 0.00 | 0.00 | 0.00 | 88 | 1016.1 |
| 20260901114540 | 73 | 0 | 0.0 | 0.0 | 0.00 | 0.00 | 0.00 | 87 | 1016.0 |
| 20260901113044 | 74 | 0 | 0.0 | 0.0 | 0.00 | 0.00 | 0.00 | 87 | 1015.9 |
| 20260901111540 | 73 | 0 | 0.0 | 0.0 | 0.00 | 0.00 | 0.00 | 86 | 1015.8 |
| 20260901110041 | 73 | 0 | 0.0 | 0.0 | 0.00 | 0.00 | 0.00 | 83 | 1015.6 |
| 20260901104554 | 73 | 0 | 0.0 | 0.0 | 0.00 | 0.00 | 0.00 | 74 | 1015.5 |
| 20260901103042 | 75 | 0 | 0.0 | 1.0 | 0.00 | 0.00 | 0.00 | 69 | 1015.5 |
| 20260901101542 | 79 | 0 | 0.0 | 1.0 | 0.00 | 0.00 | 0.00 | 59 | 1015.5 |
| 20260901100055 | 82 | 129 | 0.0 | 1.0 | 0.00 | 0.00 | 0.00 | 50 | 1015.5 |
| 20260901094542 | 82 | 117 | 0.0 | 2.0 | 0.00 | 0.00 | 0.00 | 49 | 1015.4 |
| 20260901093050 | 82 | 120 | 0.0 | 1.0 | 0.00 | 0.00 | 0.00 | 49 | 1015.6 |
| 20260901091541 | 83 | 0 | 0.0 | 1.0 | 0.00 | 0.00 | 0.00 | 48 | 1015.7 |
| 20260901090042 | 83 | 116 | 0.0 | 3.0 | 0.00 | 0.00 | 0.00 | 46 | 1015.7 |
| 20260901084541 | 83 | 56 | 1.0 | 4.0 | 0.00 | 0.00 | 0.00 | 45 | 1015.5 |
| 20260901083042 | 83 | 0 | 0.0 | 4.0 | 0.00 | 0.00 | 0.00 | 44 | 1015.5 |
| 20260901081540 | 83 | 105 | 2.0 | 4.0 | 0.00 | 0.00 | 0.00 | 43 | 1015.5 |
| 20260901080045 | 82 | 123 | 0.0 | 3.0 | 0.00 | 0.00 | 0.00 | 42 | 1015.4 |
| 20260901074542 | 82 | 112 | 0.0 | 2.0 | 0.00 | 0.00 | 0.00 | 43 | 1015.4 |
| 20260901073047 | 81 | 0 | 0.0 | 1.0 | 0.00 | 0.00 | 0.00 | 44 | 1015.3 |
| 20260901071542 | 80 | 0 | 0.0 | 1.0 | 0.00 | 0.00 | 0.00 | 45 | 1015.3 |
| 20260901070042 | 81 | 0 | 0.0 | 0.0 | 0.00 | 0.00 | 0.00 | 44 | 1015.3 |
| 20260901064545 | 82 | 0 | 0.0 | 0.0 | 0.00 | 0.00 | 0.00 | 42 | 1015.2 |
| 20260901063042 | 81 | 148 | 0.0 | 1.0 | 0.00 | 0.00 | 0.00 | 44 | 1015.2 |
| 20260901061541 | 81 | 0 | 0.0 | 0.0 | 0.00 | 0.00 | 0.00 | 46 | 1015.1 |
| 20260901060044 | 80 | 138 | 0.0 | 1.0 | 0.00 | 0.00 | 0.00 | 45 | 1014.9 |
| 20260901054538 | 78 | 0 | 0.0 | 0.0 | 0.00 | 0.00 | 0.00 | 44 | 1014.8 |
| 20260901053040 | 79 | 0 | 0.0 | 0.0 | 0.00 | 0.00 | 0.00 | 45 | 1014.6 |
| 20260901051545 | 79 | 0 | 0.0 | 0.0 | 0.00 | 0.00 | 0.00 | 43 | 1014.5 |
| 20260901050040 | 79 | 0 | 0.0 | 0.0 | 0.00 | 0.00 | 0.00 | 42 | 1014.4 |
| 20260901044553 | 80 | 0 | 0.0 | 0.0 | 0.00 | 0.00 | 0.00 | 41 | 1014.3 |
| 20260901043037 | 80 | 0 | 0.0 | 0.0 | 0.00 | 0.00 | 0.00 | 41 | 1014.3 |
| 20260901041542 | 81 | 0 | 0.0 | 0.0 | 0.00 | 0.00 | 0.00 | 40 | 1014.3 |
| 20260901040043 | 81 | 0 | 0.0 | 0.0 | 0.00 | 0.00 | 0.00 | 38 | 1014.3 |
| 20260901034539 | 82 | 0 | 0.0 | 0.0 | 0.00 | 0.00 | 0.00 | 36 | 1014.2 |
| 20260901033042 | 82 | 0 | 0.0 | 0.0 | 0.00 | 0.00 | 0.00 | 36 | 1014.3 |
| 20260901031544 | 82 | 0 | 0.0 | 0.0 | 0.00 | 0.00 | 0.00 | 36 | 1014.2 |
| 20260901030050 | 83 | 0 | 0.0 | 0.0 | 0.00 | 0.00 | 0.00 | 35 | 1014.1 |
| 20260901024540 | 83 | 0 | 0.0 | 0.0 | 0.00 | 0.00 | 0.00 | 33 | 1014.1 |
| 20260901023045 | 84 | 0 | 0.0 | 0.0 | 0.00 | 0.00 | 0.00 | 33 | 1013.9 |
| 20260901021545 | 85 | 0 | 0.0 | 0.0 | 0.00 | 0.00 | 0.00 | 32 | 1013.7 |
| 20260901020049 | 86 | 0 | 0.0 | 0.0 | 0.00 | 0.00 | 0.00 | 30 | 1013.5 |
| 20260901014546 | 87 | 0 | 0.0 | 0.0 | 0.00 | 0.00 | 0.00 | 29 | 1013.3 |
| 20260901013046 | 88 | 0 | 0.0 | 0.0 | 0.00 | 0.00 | 0.00 | 28 | 1013.3 |
| 20260901011541 | 90 | 0 | 0.0 | 0.0 | 0.00 | 0.00 | 0.00 | 27 | 1013.2 |
| 20260901010048 | 91 | 0 | 0.0 | 1.0 | 0.00 | 0.00 | 0.00 | 25 | 1013.2 |
| 20260901004556 | 93 | 0 | 0.0 | 1.0 | 0.00 | 0.00 | 0.00 | 24 | 1013.1 |
| 20260901003044 | 94 | 0 | 0.0 | 2.0 | 0.00 | 0.00 | 0.00 | 22 | 1013.1 |
| 20260901001538 | 95 | 0 | 0.0 | 4.0 | 0.00 | 0.00 | 0.00 | 21 | 1013.1 |
| 20260901000045 | 96 | 134 | 0.0 | 5.0 | 0.00 | 0.00 | 0.00 | 20 | 1013.1 |
| 20260831234543 | 96 | 117 | 1.0 | 7.0 | 0.00 | 0.00 | 0.00 | 20 | 1013.1 |
| 20260831233041 | 96 | 116 | 2.0 | 6.0 | 0.00 | 0.00 | 0.00 | 20 | 1013.0 |
| 20260831231541 | 96 | 117 | 1.0 | 2.0 | 0.00 | 0.00 | 0.00 | 22 | 1013.0 |
| 20260831230045 | 97 | 167 | 1.0 | 6.0 | 0.00 | 0.00 | 0.00 | 20 | 1013.0 |
| 20260831224546 | 99 | 101 | 2.0 | 9.0 | 0.00 | 0.00 | 0.00 | 17 | 1013.1 |
| 20260831223040 | 98 | 264 | 1.0 | 3.0 | 0.00 | 0.00 | 0.00 | 20 | 1013.2 |
| 20260831221539 | 98 | 117 | 1.0 | 6.0 | 0.00 | 0.00 | 0.00 | 18 | 1013.2 |
| 20260831220044 | 99 | 122 | 1.0 | 5.0 | 0.00 | 0.00 | 0.00 | 18 | 1013.5 |
| 20260831214601 | 100 | 170 | 1.0 | 5.0 | 0.00 | 0.00 | 0.00 | 18 | 1013.6 |
| 20260831213040 | 100 | 179 | 2.0 | 8.0 | 0.00 | 0.00 | 0.00 | 18 | 1013.9 |
| 20260831211542 | 101 | 118 | 2.0 | 10.0 | 0.00 | 0.00 | 0.00 | 16 | 1013.9 |
| 20260831210042 | 100 | 133 | 2.0 | 9.0 | 0.00 | 0.00 | 0.00 | 18 | 1014.0 |
| 20260831204539 | 99 | 75 | 1.0 | 5.0 | 0.00 | 0.00 | 0.00 | 19 | 1014.3 |
| 20260831203038 | 100 | 115 | 2.0 | 7.0 | 0.00 | 0.00 | 0.00 | 18 | 1014.6 |
| 20260831201541 | 100 | 262 | 2.0 | 7.0 | 0.00 | 0.00 | 0.00 | 19 | 1014.6 |
| 20260831200046 | 101 | 155 | 2.0 | 8.0 | 0.00 | 0.00 | 0.00 | 18 | 1014.7 |
| 20260831194547 | 103 | 152 | 0.0 | 7.0 | 0.00 | 0.00 | 0.00 | 19 | 1014.9 |
| 20260831193043 | 102 | 141 | 1.0 | 6.0 | 0.00 | 0.00 | 0.00 | 16 | 1015.2 |
| 20260831191540 | 101 | 150 | 1.0 | 8.0 | 0.00 | 0.00 | 0.00 | 19 | 1015.4 |
| 20260831190059 | 100 | 136 | 1.0 | 7.0 | 0.00 | 0.00 | 0.00 | 20 | 1015.5 |
| 20260831184546 | 99 | 44 | 1.0 | 7.0 | 0.00 | 0.00 | 0.00 | 21 | 1015.6 |
| 20260831183052 | 98 | 169 | 1.0 | 9.0 | 0.00 | 0.00 | 0.00 | 23 | 1015.6 |
| 20260831181545 | 98 | 65 | 1.0 | 11.0 | 0.00 | 0.00 | 0.00 | 25 | 1016.0 |
| 20260831180046 | 97 | 169 | 1.0 | 10.0 | 0.00 | 0.00 | 0.00 | 25 | 1016.2 |
| 20260831174543 | 97 | 0 | 2.0 | 6.0 | 0.00 | 0.00 | 0.00 | 27 | 1016.4 |
| 20260831173042 | 96 | 118 | 0.0 | 9.0 | 0.00 | 0.00 | 0.00 | 27 | 1016.7 |
| 20260831171543 | 96 | 177 | 1.0 | 6.0 | 0.00 | 0.00 | 0.00 | 26 | 1016.8 |
| 20260831170043 | 95 | 149 | 0.0 | 5.0 | 0.00 | 0.00 | 0.00 | 27 | 1016.8 |
| 20260831164551 | 94 | 119 | 1.0 | 6.0 | 0.00 | 0.00 | 0.00 | 28 | 1016.9 |
| 20260831163044 | 93 | 0 | 0.0 | 3.0 | 0.00 | 0.00 | 0.00 | 30 | 1016.9 |
| 20260831161546 | 92 | 236 | 0.0 | 2.0 | 0.00 | 0.00 | 0.00 | 31 | 1017.1 |